Time;durP1;ratioP1;P1;durP2;ratioP2;P2;SDS_P1;SDS_P2;PMS_P1;PMS_P2;Temp;Humidity;BMP_temperature;BMP_pressure;BME280_temperature;BME280_humidity;BME280_pressure;Samples;Min_cycle;Max_cycle;Signal;HPM_P1;HPM_P2
2022/09/07 00:00:39;103513.00;0.35;179.64;0.00;0.00;0.62;;;;;23.10;1.00;;;;;;2273698;61;1602;-88
2022/09/07 00:03:08;184771.00;0.62;319.71;0.00;0.00;0.62;;;;;23.40;1.00;;;;;;2276347;61;1329;-89
2022/09/07 00:05:40;104603.00;0.35;181.52;0.00;0.00;0.62;;;;;23.50;1.00;;;;;;2276514;61;1921;-88
2022/09/07 00:08:08;244824.00;0.82;423.05;0.00;0.00;0.62;;;;;23.40;1.00;;;;;;2275546;61;1423;-88
2022/09/07 00:10:36;174041.00;0.58;301.23;0.00;0.00;0.62;;;;;23.50;1.00;;;;;;2273063;61;1289;-88
2022/09/07 00:13:04;80401.00;0.27;139.73;0.00;0.00;0.62;;;;;23.60;1.00;;;;;;2273034;61;1131;-88
2022/09/07 00:15:31;166235.00;0.55;287.78;0.00;0.00;0.62;;;;;23.80;1.00;;;;;;2273082;61;936;-88
2022/09/07 00:17:59;214070.00;0.71;370.14;0.00;0.00;0.62;;;;;23.80;1.00;;;;;;2274033;61;1126;-87
2022/09/07 00:20:26;209061.00;0.70;361.52;64662.00;0.22;112.54;;;;;23.70;1.00;;;;;;2277036;61;1530;-87
2022/09/07 00:22:53;359466.00;1.20;620.13;35785.00;0.12;62.60;;;;;23.60;1.00;;;;;;2274059;61;959;-86
2022/09/07 00:25:20;140295.00;0.47;243.08;0.00;0.00;0.62;;;;;23.50;1.00;;;;;;2272863;61;987;-86
2022/09/07 00:27:49;113466.00;0.38;196.81;0.00;0.00;0.62;;;;;23.60;1.00;;;;;;2272920;61;2026;-86
2022/09/07 00:30:16;157464.00;0.52;272.67;16397.00;0.05;29.03;;;;;23.50;1.00;;;;;;2272892;61;1380;-86
2022/09/07 00:32:43;144941.00;0.48;251.09;0.00;0.00;0.62;;;;;23.30;1.00;;;;;;2284343;56;3899;-87
2022/09/07 00:35:11;50975.00;0.17;88.87;0.00;0.00;0.62;;;;;23.40;1.00;;;;;;2280992;60;935;-85
2022/09/07 00:37:38;10977.00;0.04;19.64;0.00;0.00;0.62;;;;;23.30;1.00;;;;;;2280994;60;984;-87
2022/09/07 00:40:06;234991.00;0.78;406.13;66367.00;0.22;115.48;;;;;23.50;1.00;;;;;;2278883;60;1447;-86
2022/09/07 00:42:33;34647.00;0.12;60.63;0.00;0.00;0.62;;;;;23.50;1.00;;;;;;2276963;61;1508;-86
2022/09/07 00:45:08;127084.00;0.42;220.30;0.00;0.00;0.62;;;;;23.30;1.00;;;;;;2277048;61;1249;-86
2022/09/07 00:47:42;66903.00;0.22;116.41;0.00;0.00;0.62;;;;;23.30;1.00;;;;;;2276959;61;2008;-85
2022/09/07 00:50:17;50924.00;0.17;88.78;0.00;0.00;0.62;;;;;23.50;1.00;;;;;;2277008;61;1442;-86
2022/09/07 00:52:47;188564.00;0.63;326.24;55483.00;0.18;96.67;;;;;23.50;1.00;;;;;;2276869;61;967;-90
2022/09/07 00:55:17;215977.00;0.72;373.42;41386.00;0.14;72.29;;;;;23.70;1.00;;;;;;2277011;61;919;-87
2022/09/07 00:57:48;156857.00;0.52;271.62;0.00;0.00;0.62;;;;;23.70;1.00;;;;;;2276905;61;1285;-85
2022/09/07 01:00:17;100893.00;0.34;175.11;0.00;0.00;0.62;;;;;23.60;1.00;;;;;;2276838;61;1368;-86
2022/09/07 01:02:46;30757.00;0.10;53.89;0.00;0.00;0.62;;;;;23.70;1.00;;;;;;2276900;61;1045;-87
2022/09/07 01:05:19;324344.00;1.08;559.76;44273.00;0.15;77.28;;;;;23.40;1.00;;;;;;2276874;61;1407;-86
2022/09/07 01:07:46;117009.00;0.39;202.92;0.00;0.00;0.62;;;;;23.50;1.00;;;;;;2276719;61;1926;-85
2022/09/07 01:10:14;86653.00;0.29;150.53;0.00;0.00;0.62;;;;;23.70;1.00;;;;;;2276841;61;1394;-87
2022/09/07 01:12:41;187301.00;0.62;324.06;12724.00;0.04;22.67;;;;;23.70;1.00;;;;;;2276811;61;1479;-88
2022/09/07 01:15:09;22736.00;0.08;40.01;0.00;0.00;0.62;;;;;23.70;1.00;;;;;;2276825;61;1154;-87
2022/09/07 01:17:52;194593.00;0.65;336.62;31578.00;0.11;55.31;;;;;23.80;1.00;;;;;;2276551;61;1078;-86
2022/09/07 01:20:50;402555.00;1.34;694.20;28113.00;0.09;49.32;;;;;23.80;1.00;;;;;;2276795;61;1420;-85
2022/09/07 01:24:04;147297.00;0.49;255.15;0.00;0.00;0.62;;;;;23.70;1.00;;;;;;2276790;61;1071;-85
2022/09/07 01:27:02;113063.00;0.38;196.12;0.00;0.00;0.62;;;;;23.30;1.00;;;;;;2273119;61;1935;-85
2022/09/07 01:29:38;37936.00;0.13;66.32;0.00;0.00;0.62;;;;;22.70;1.00;;;;;;2276880;61;1529;-87
2022/09/07 01:32:14;166548.00;0.56;288.32;0.00;0.00;0.62;;;;;22.00;1.00;;;;;;2276693;61;1113;-87
2022/09/07 01:34:46;62411.00;0.21;108.64;0.00;0.00;0.62;;;;;21.80;1.40;;;;;;2276758;61;1184;-87
2022/09/07 01:37:22;97999.00;0.33;170.12;0.00;0.00;0.62;;;;;21.70;1.60;;;;;;2276715;61;1608;-85
2022/09/07 01:39:57;0.00;0.00;0.62;0.00;0.00;0.62;;;;;21.70;1.60;;;;;;2276566;61;1516;-87
2022/09/07 01:42:31;136531.00;0.46;236.59;32538.00;0.11;56.98;;;;;21.80;1.10;;;;;;2276805;61;1061;-88
2022/09/07 01:45:02;183563.00;0.61;317.63;74821.00;0.25;130.09;;;;;21.70;1.30;;;;;;2276716;61;1054;-88
2022/09/07 01:47:35;167872.00;0.56;290.60;0.00;0.00;0.62;;;;;21.80;1.70;;;;;;2276764;61;2010;-87
2022/09/07 01:50:09;38379.00;0.13;67.08;0.00;0.00;0.62;;;;;22.10;1.00;;;;;;2276714;61;1379;-89
2022/09/07 01:52:42;129025.00;0.43;223.65;0.00;0.00;0.62;;;;;22.40;1.00;;;;;;2276774;61;1168;-88
2022/09/07 01:55:16;8350.00;0.03;15.09;0.00;0.00;0.62;;;;;22.80;1.00;;;;;;2276705;61;1501;-88
2022/09/07 01:57:52;282825.00;0.94;488.39;113839.00;0.38;197.45;;;;;23.00;1.00;;;;;;2276598;61;1140;-88
2022/09/07 02:00:21;172412.00;0.57;298.42;0.00;0.00;0.62;;;;;22.70;1.00;;;;;;2276637;61;1418;-87
2022/09/07 02:02:52;217087.00;0.72;375.33;0.00;0.00;0.62;;;;;22.70;1.00;;;;;;2279056;40;3600;-87
2022/09/07 02:05:24;79669.00;0.27;138.47;0.00;0.00;0.62;;;;;22.70;1.00;;;;;;2276703;61;1099;-86
2022/09/07 02:07:57;23529.00;0.08;41.38;0.00;0.00;0.62;;;;;22.30;1.00;;;;;;2276682;61;1911;-86
2022/09/07 02:10:28;82958.00;0.28;144.15;0.00;0.00;0.62;;;;;22.10;1.00;;;;;;2273876;61;2192;-87
2022/09/07 02:13:03;0.00;0.00;0.62;0.00;0.00;0.62;;;;;22.10;1.00;;;;;;2272565;61;1064;-86
2022/09/07 02:15:42;96498.00;0.32;167.53;0.00;0.00;0.62;;;;;21.80;1.00;;;;;;2272550;61;1228;-87
2022/09/07 02:18:12;307387.00;1.02;530.62;133468.00;0.44;231.31;;;;;21.70;1.00;;;;;;2272676;61;1066;-87
2022/09/07 02:20:43;0.00;0.00;0.62;0.00;0.00;0.62;;;;;21.70;1.00;;;;;;2272510;61;1469;-87
2022/09/07 02:23:18;130345.00;0.43;225.92;0.00;0.00;0.62;;;;;21.70;1.00;;;;;;2272675;61;1116;-86
2022/09/07 02:25:52;164574.00;0.55;284.92;0.00;0.00;0.62;;;;;21.70;1.00;;;;;;2272642;61;1046;-87
2022/09/07 02:28:26;9165.00;0.03;16.50;0.00;0.00;0.62;;;;;21.80;1.00;;;;;;2272554;61;1923;-86
2022/09/07 02:30:54;390089.00;1.30;672.77;18250.00;0.06;32.24;;;;;21.60;1.00;;;;;;2272646;61;1513;-87
2022/09/07 02:33:22;188058.00;0.63;325.36;0.00;0.00;0.62;;;;;21.80;1.00;;;;;;2272657;61;1071;-87
2022/09/07 02:35:49;37437.00;0.12;65.45;0.00;0.00;0.62;;;;;22.00;1.00;;;;;;2272497;61;1134;-88
2022/09/07 02:38:22;48774.00;0.16;85.07;0.00;0.00;0.62;;;;;22.30;1.00;;;;;;2272541;61;1108;-87
2022/09/07 02:40:52;274999.00;0.92;474.94;33188.00;0.11;58.10;;;;;22.40;1.00;;;;;;2272414;61;1544;-87
2022/09/07 02:43:22;263408.00;0.88;455.01;49072.00;0.16;85.58;;;;;22.50;1.00;;;;;;2272584;61;1986;-86
2022/09/07 02:46:10;177721.00;0.59;307.56;0.00;0.00;0.62;;;;;22.60;1.00;;;;;;2272508;61;1162;-88
2022/09/07 02:48:50;77894.00;0.26;135.40;0.00;0.00;0.62;;;;;22.60;1.00;;;;;;2272520;61;2000;-87
2022/09/07 02:51:28;503020.00;1.68;867.02;91341.00;0.30;158.62;;;;;22.60;1.00;;;;;;2272551;61;1331;-88
2022/09/07 02:54:15;917257.00;3.06;1586.45;291134.00;0.97;502.68;;;;;22.90;1.00;;;;;;2272514;61;1546;-86
2022/09/07 02:56:52;351050.00;1.17;605.67;0.00;0.00;0.62;;;;;22.90;1.00;;;;;;2272366;61;1457;-88
2022/09/07 02:59:38;423248.00;1.41;729.78;62358.00;0.21;108.55;;;;;23.10;1.00;;;;;;2272469;61;1361;-87
2022/09/07 03:02:15;115321.00;0.38;200.01;0.00;0.00;0.62;;;;;23.10;1.00;;;;;;2272437;61;1115;-85
2022/09/07 03:04:51;168219.00;0.56;291.20;0.00;0.00;0.62;;;;;22.90;1.00;;;;;;2272444;61;1595;-86
2022/09/07 03:07:23;136199.00;0.45;236.02;0.00;0.00;0.62;;;;;22.90;1.00;;;;;;2272426;61;2009;-87
2022/09/07 03:09:56;150314.00;0.50;260.35;0.00;0.00;0.62;;;;;22.90;1.00;;;;;;2272444;61;1426;-87
2022/09/07 03:12:32;157992.00;0.53;273.58;0.00;0.00;0.62;;;;;22.80;1.00;;;;;;2272387;61;1025;-87
2022/09/07 03:14:59;158898.00;0.53;275.14;0.00;0.00;0.62;;;;;22.70;1.00;;;;;;2272524;61;1027;-87
2022/09/07 03:17:27;259266.00;0.86;447.89;0.00;0.00;0.62;;;;;22.60;1.00;;;;;;2268523;61;2373;-86
2022/09/07 03:19:54;483342.00;1.61;833.15;29339.00;0.10;51.44;;;;;22.40;1.00;;;;;;2268289;61;1470;-86
2022/09/07 03:22:21;759488.00;2.53;1310.56;82753.00;0.28;143.79;;;;;22.20;1.00;;;;;;2268416;61;1612;-88
2022/09/07 03:24:48;609739.00;2.03;1051.04;36416.00;0.12;63.69;;;;;22.50;1.00;;;;;;2268378;61;1155;-88
2022/09/07 03:27:15;1041973.00;3.47;1806.95;124954.00;0.42;216.63;;;;;22.80;1.00;;;;;;2271670;61;2014;-88
2022/09/07 03:29:42;1119207.00;3.73;1944.81;110383.00;0.37;191.49;;;;;22.90;1.00;;;;;;2272487;61;1311;-88
2022/09/07 03:32:09;828330.00;2.76;1430.58;186253.00;0.62;322.26;;;;;23.00;1.00;;;;;;2272494;61;1035;-88
2022/09/07 03:34:38;1294491.00;4.31;2262.03;90139.00;0.30;156.55;;;;;23.20;1.00;;;;;;2272442;61;1031;-88
2022/09/07 03:37:05;1034411.00;3.45;1793.51;204588.00;0.68;353.82;;;;;23.40;1.00;;;;;;2269613;61;1467;-87
2022/09/07 03:39:32;706425.00;2.35;1218.38;67831.00;0.23;118.01;;;;;23.50;1.00;;;;;;2268263;61;1455;-89
2022/09/07 03:41:59;409776.00;1.37;706.61;82973.00;0.28;144.17;;;;;23.50;1.00;;;;;;2268259;61;1035;-87
2022/09/07 03:44:26;117274688.00;390.92;65334140.00;66200.00;0.22;115.19;;;;;23.50;1.00;;;;;;2268296;61;1156;-88
2022/09/07 03:46:57;968168.00;3.23;1676.17;110896.00;0.37;192.38;;;;;23.60;1.00;;;;;;2270201;61;1920;-88
2022/09/07 03:49:24;453485.00;1.51;781.78;68236.00;0.23;118.71;;;;;23.80;1.00;;;;;;2272330;61;1284;-87
2022/09/07 03:51:52;211607.00;0.71;365.90;0.00;0.00;0.62;;;;;24.00;1.00;;;;;;2272263;61;1644;-87
2022/09/07 03:54:21;68409.00;0.23;119.01;0.00;0.00;0.62;;;;;24.10;1.00;;;;;;2272314;61;1125;-87
2022/09/07 03:56:50;0.00;0.00;0.62;0.00;0.00;0.62;;;;;24.00;1.00;;;;;;2272242;61;959;-88
2022/09/07 03:59:19;321929.00;1.07;555.61;41225.00;0.14;72.01;;;;;24.00;1.00;;;;;;2272306;61;1380;-87
2022/09/07 04:01:46;150731.00;0.50;261.07;0.00;0.00;0.62;;;;;24.00;1.00;;;;;;2272231;61;1432;-89
2022/09/07 04:04:13;162120.00;0.54;280.69;0.00;0.00;0.62;;;;;23.80;1.00;;;;;;2272276;61;1688;-86
2022/09/07 04:06:40;282471.00;0.94;487.79;0.00;0.00;0.62;;;;;23.80;1.00;;;;;;2272154;61;2002;-88
2022/09/07 04:09:13;171561.00;0.57;296.96;0.00;0.00;0.62;;;;;23.80;1.00;;;;;;2272285;61;1315;-87
2022/09/07 04:11:41;251209.00;0.84;434.03;0.00;0.00;0.62;;;;;23.70;1.00;;;;;;2272165;61;1665;-87
2022/09/07 04:14:10;43684.00;0.15;76.26;0.00;0.00;0.62;;;;;23.70;1.00;;;;;;2272157;61;1583;-85
2022/09/07 04:16:38;195563.00;0.65;338.29;0.00;0.00;0.62;;;;;23.70;1.00;;;;;;2272148;61;1528;-88
2022/09/07 04:19:06;341626.00;1.14;589.47;37369.00;0.12;65.34;;;;;23.80;1.00;;;;;;2272197;61;1421;-88
2022/09/07 04:21:34;20512.00;0.07;36.16;0.00;0.00;0.62;;;;;23.80;1.00;;;;;;2272206;61;1130;-87
2022/09/07 04:24:04;385151.00;1.28;664.28;99945.00;0.33;173.48;;;;;23.80;1.00;;;;;;2272085;61;1121;-88
2022/09/07 04:26:34;93886.00;0.31;163.02;0.00;0.00;0.62;;;;;23.70;1.00;;;;;;2272188;61;1107;-88
2022/09/07 04:29:05;228188.00;0.76;394.43;0.00;0.00;0.62;;;;;23.80;1.00;;;;;;2272077;61;1936;-87
2022/09/07 04:31:34;331602.00;1.11;572.24;0.00;0.00;0.62;;;;;23.90;1.00;;;;;;2268438;61;1635;-89
2022/09/07 04:34:01;40958.00;0.14;71.55;0.00;0.00;0.62;;;;;23.80;1.00;;;;;;2268214;61;1156;-87
2022/09/07 04:36:29;59596.00;0.20;103.78;0.00;0.00;0.62;;;;;23.60;1.00;;;;;;2268136;61;1051;-88
2022/09/07 04:38:58;180996.00;0.60;313.20;9177.00;0.03;16.52;;;;;23.70;1.00;;;;;;2268124;61;1047;-88
2022/09/07 04:41:25;5997.00;0.02;11.01;0.00;0.00;0.62;;;;;23.70;1.00;;;;;;2271306;61;1725;-91
2022/09/07 04:43:56;98058.00;0.33;170.22;0.00;0.00;0.62;;;;;23.80;1.00;;;;;;2272127;61;1507;-87
2022/09/07 04:46:25;108174.00;0.36;187.68;0.00;0.00;0.62;;;;;23.80;1.00;;;;;;2272239;61;1036;-87
2022/09/07 04:48:55;122554.00;0.41;212.49;0.00;0.00;0.62;;;;;23.80;1.00;;;;;;2272233;61;1935;-87
2022/09/07 04:51:23;13009.00;0.04;23.16;0.00;0.00;0.62;;;;;23.90;1.00;;;;;;2272326;61;1107;-87
2022/09/07 04:53:52;188770.00;0.63;326.59;0.00;0.00;0.62;;;;;24.00;1.00;;;;;;2272761;61;1114;-88
2022/09/07 04:58:58;412184.00;1.37;710.75;0.00;0.00;0.62;;;;;24.10;1.00;;;;;;2274280;61;1389;-87
2022/09/07 05:01:26;330678.00;1.10;570.65;23426.00;0.08;41.20;;;;;24.10;1.00;;;;;;2272718;61;1569;-86
2022/09/07 05:03:53;51422.00;0.17;89.65;0.00;0.00;0.62;;;;;23.80;1.00;;;;;;2272645;61;946;-88
2022/09/07 05:06:21;109069.00;0.36;189.22;0.00;0.00;0.62;;;;;23.60;1.00;;;;;;2272835;61;915;-89
2022/09/07 05:08:50;20183.00;0.07;35.59;0.00;0.00;0.62;;;;;23.50;1.00;;;;;;2272553;61;2000;-88
2022/09/07 05:11:19;192419.00;0.64;332.87;0.00;0.00;0.62;;;;;23.40;1.00;;;;;;2272802;61;1157;-87
2022/09/07 05:13:46;0.00;0.00;0.62;0.00;0.00;0.62;;;;;23.40;1.00;;;;;;2272855;61;1083;-87
2022/09/07 05:16:19;262652.00;0.88;453.71;0.00;0.00;0.62;;;;;23.50;1.00;;;;;;2272821;61;1019;-86
2022/09/07 05:18:54;216071.00;0.72;373.58;0.00;0.00;0.62;;;;;23.70;1.00;;;;;;2272764;61;1004;-88
2022/09/07 05:21:24;574704.00;1.92;990.56;76154.00;0.25;132.39;;;;;23.60;1.00;;;;;;2272698;61;1586;-87
2022/09/07 05:23:52;456941.00;1.52;787.72;99437.00;0.33;172.60;;;;;23.30;1.00;;;;;;2272619;61;1031;-86
2022/09/07 05:26:22;177105.00;0.59;306.50;0.00;0.00;0.62;;;;;23.30;1.00;;;;;;2272665;61;1026;-87
2022/09/07 05:28:49;128455.00;0.43;222.66;0.00;0.00;0.62;;;;;23.40;1.00;;;;;;2272776;61;1919;-88
2022/09/07 05:31:20;314287.00;1.05;542.48;0.00;0.00;0.62;;;;;23.70;1.00;;;;;;2272632;61;1458;-88
2022/09/07 05:33:48;209122.00;0.70;361.62;0.00;0.00;0.62;;;;;24.50;1.00;;;;;;2272727;61;1081;-89
2022/09/07 05:36:19;125302.00;0.42;217.23;0.00;0.00;0.62;;;;;25.50;1.00;;;;;;2272659;61;1038;-87
2022/09/07 05:38:47;227598.00;0.76;393.42;0.00;0.00;0.62;;;;;26.20;1.00;;;;;;2272546;61;1459;-88
2022/09/07 05:41:16;185763.00;0.62;321.41;0.00;0.00;0.62;;;;;27.00;1.00;;;;;;2272667;61;1446;-88
2022/09/07 05:43:46;212713.00;0.71;367.80;0.00;0.00;0.62;;;;;28.00;1.00;;;;;;2272603;61;1445;-88
2022/09/07 05:46:14;124463.00;0.41;215.78;0.00;0.00;0.62;;;;;28.60;1.00;;;;;;2272715;61;1605;-89
2022/09/07 05:48:47;139471.00;0.46;241.66;0.00;0.00;0.62;;;;;29.20;1.00;;;;;;2272748;61;1915;-89
2022/09/07 05:51:17;258505.00;0.86;446.58;0.00;0.00;0.62;;;;;29.90;1.00;;;;;;2272671;61;1654;-88
2022/09/07 05:53:47;281858.00;0.94;486.73;0.00;0.00;0.62;;;;;30.10;1.00;;;;;;2272651;61;1548;-87
2022/09/07 05:56:15;138744.00;0.46;240.41;0.00;0.00;0.62;;;;;29.90;1.00;;;;;;2272501;61;1554;-88
2022/09/07 05:58:48;127963.00;0.43;221.82;0.00;0.00;0.62;;;;;29.20;1.00;;;;;;2272506;61;2161;-88
2022/09/07 06:01:15;326098.00;1.09;562.78;956.00;0.00;2.28;;;;;28.50;1.00;;;;;;2272568;61;1417;-88
2022/09/07 06:03:45;98290.00;0.33;170.62;0.00;0.00;0.62;;;;;27.90;1.00;;;;;;2272516;61;1120;-88
2022/09/07 06:06:14;309544.00;1.03;534.33;18998.00;0.06;33.53;;;;;27.20;1.00;;;;;;2272682;61;1127;-88
2022/09/07 06:08:45;306490.00;1.02;529.08;58583.00;0.20;102.03;;;;;26.60;1.00;;;;;;2272563;61;2008;-89
2022/09/07 06:11:17;761561.00;2.54;1314.17;160012.00;0.53;277.06;;;;;26.50;1.00;;;;;;2272604;61;1599;-88
2022/09/07 06:13:48;266120.00;0.89;459.67;40568.00;0.14;70.87;;;;;26.60;1.00;;;;;;2272725;61;977;-88
2022/09/07 06:16:16;152562.00;0.51;264.22;0.00;0.00;0.62;;;;;27.00;1.00;;;;;;2272602;61;1314;-87
2022/09/07 06:18:47;201641.00;0.67;348.75;0.00;0.00;0.62;;;;;26.70;1.00;;;;;;2272586;61;999;-87
2022/09/07 06:21:16;12921.00;0.04;23.01;0.00;0.00;0.62;;;;;27.10;1.00;;;;;;2272547;61;1545;-87
2022/09/07 06:23:44;190253.00;0.63;329.14;37540.00;0.13;65.63;;;;;27.60;1.00;;;;;;2272527;61;1170;-86
2022/09/07 06:26:16;526975.00;1.76;908.28;124882.00;0.42;216.50;;;;;27.60;1.00;;;;;;2272541;61;1114;-87
2022/09/07 06:28:48;590873.00;1.97;1018.46;139345.00;0.46;241.44;;;;;27.40;1.00;;;;;;2272488;61;1919;-87
2022/09/07 06:31:18;449714.00;1.50;775.29;75325.00;0.25;130.96;;;;;26.90;1.00;;;;;;2272476;61;1395;-88
2022/09/07 06:33:52;255922.00;0.85;442.14;25911.00;0.09;45.50;;;;;26.60;1.00;;;;;;2272490;61;1083;-87
2022/09/07 06:36:32;424131.00;1.41;731.29;56618.00;0.19;98.63;;;;;26.20;1.00;;;;;;2272293;61;1365;-87
2022/09/07 06:39:03;218227.00;0.73;377.29;0.00;0.00;0.62;;;;;25.90;1.00;;;;;;2272454;61;1628;-87
2022/09/07 06:41:31;316475.00;1.05;546.24;23579.00;0.08;41.47;;;;;25.70;1.00;;;;;;2272676;61;1071;-86
2022/09/07 06:44:03;201420.00;0.67;348.37;0.00;0.00;0.62;;;;;25.90;1.00;;;;;;2272589;61;1672;-88
2022/09/07 06:46:35;321434.00;1.07;554.76;84689.00;0.28;147.14;;;;;25.90;1.00;;;;;;2272625;61;1026;-87
2022/09/07 06:49:18;257616.00;0.86;445.05;0.00;0.00;0.62;;;;;26.10;1.00;;;;;;2272527;61;1911;-85
2022/09/07 06:51:45;350146.00;1.17;604.11;48568.00;0.16;84.71;;;;;25.90;1.00;;;;;;2272655;61;1053;-86
2022/09/07 06:54:23;406094.00;1.35;700.28;69233.00;0.23;120.44;;;;;25.90;1.00;;;;;;2272565;61;1495;-87
2022/09/07 06:56:50;468444.00;1.56;807.51;52882.00;0.18;92.17;;;;;27.00;1.00;;;;;;2272534;61;1816;-88
2022/09/07 06:59:19;291001.00;0.97;502.45;62952.00;0.21;109.58;;;;;28.40;1.00;;;;;;2272511;61;1294;-87
2022/09/07 07:01:50;452134.00;1.51;779.45;58217.00;0.19;101.39;;;;;29.60;1.00;;;;;;2272511;61;1471;-88
2022/09/07 07:04:23;527593.00;1.76;909.34;108648.00;0.36;188.50;;;;;30.70;1.00;;;;;;2272463;61;2184;-88
2022/09/07 07:06:53;577506.00;1.93;995.40;142676.00;0.48;247.18;;;;;31.20;1.00;;;;;;2272531;61;1473;-87
2022/09/07 07:09:34;271315.00;0.90;468.60;71374.00;0.24;124.13;;;;;31.40;1.00;;;;;;2272478;61;1996;-86
2022/09/07 07:12:16;553399.00;1.84;953.82;98335.00;0.33;170.70;;;;;31.40;1.00;;;;;;2272603;61;1048;-88
2022/09/07 07:14:48;407568.00;1.36;702.82;40240.00;0.13;70.30;;;;;31.90;1.00;;;;;;2272194;61;1638;-88
2022/09/07 07:17:21;561381.00;1.87;967.58;0.00;0.00;0.62;;;;;32.50;1.00;;;;;;2272364;61;1439;-88
2022/09/07 07:19:55;246127.00;0.82;425.29;22852.00;0.08;40.21;;;;;32.90;1.00;;;;;;2272373;61;1408;-87
2022/09/07 07:22:37;258731.00;0.86;446.97;607.00;0.00;1.67;;;;;33.30;1.00;;;;;;2272426;61;1457;-86
2022/09/07 07:27:52;97346.00;0.32;168.99;0.00;0.00;0.62;;;;;33.00;1.00;;;;;;2272023;61;2000;-86
2022/09/07 07:30:28;216287.00;0.72;373.95;0.00;0.00;0.62;;;;;33.40;1.00;;;;;;2272289;61;1563;-87
2022/09/07 07:32:57;358516.00;1.20;618.50;67809.00;0.23;117.97;;;;;34.40;1.00;;;;;;2272312;61;1027;-87
2022/09/07 07:35:35;278779.00;0.93;481.44;0.00;0.00;0.62;;;;;34.10;1.00;;;;;;2272356;61;1054;-88
2022/09/07 07:38:11;213997.00;0.71;370.01;54987.00;0.18;95.81;;;;;34.50;1.00;;;;;;2272265;61;1408;-87
2022/09/07 07:40:44;260924.00;0.87;450.74;0.00;0.00;0.62;;;;;34.60;1.00;;;;;;2272220;61;1357;-86
2022/09/07 07:43:16;100267.00;0.33;174.03;0.00;0.00;0.62;;;;;34.00;1.00;;;;;;2272269;61;1032;-87
2022/09/07 07:45:54;421290.00;1.40;726.41;95047.00;0.32;165.02;;;;;34.00;1.00;;;;;;2271997;61;1323;-88
2022/09/07 07:48:36;463861.00;1.55;799.63;50609.00;0.17;88.24;;;;;34.80;1.00;;;;;;2272083;61;1927;-87
2022/09/07 07:51:16;284298.00;0.95;490.93;55788.00;0.19;97.19;;;;;34.80;1.00;;;;;;2272073;61;1479;-88
2022/09/07 07:53:59;595840.00;1.99;1027.04;101272.00;0.34;175.77;;;;;34.40;1.00;;;;;;2272033;61;1605;-87
2022/09/07 07:56:32;433250.00;1.44;746.97;68835.00;0.23;119.75;;;;;34.30;1.00;;;;;;2272280;61;1074;-85
2022/09/07 07:59:03;1021269.00;3.40;1770.18;19949.00;0.07;35.18;;;;;34.10;1.00;;;;;;2272212;61;1372;-84
2022/09/07 08:01:46;495834.00;1.65;854.65;18184.00;0.06;32.13;;;;;34.20;1.00;;;;;;2272198;61;1502;-84
2022/09/07 08:04:21;285365.00;0.95;492.76;120604.00;0.40;209.12;;;;;34.90;1.00;;;;;;2272196;61;1424;-86
2022/09/07 08:07:00;309223.00;1.03;533.77;67390.00;0.22;117.25;;;;;34.90;1.00;;;;;;2272207;61;1455;-86
2022/09/07 08:09:49;326633.00;1.09;563.70;43514.00;0.15;75.97;;;;;34.40;1.00;;;;;;2272186;61;1992;-85
2022/09/07 08:12:26;187267.00;0.62;324.00;0.00;0.00;0.62;;;;;34.00;1.00;;;;;;2272300;61;1156;-85
2022/09/07 08:14:56;170651.00;0.57;295.39;0.00;0.00;0.62;;;;;34.30;1.00;;;;;;2272132;61;1602;-85
2022/09/07 08:17:27;328264.00;1.09;566.50;20255.00;0.07;35.71;;;;;34.30;1.00;;;;;;2272134;61;1567;-87
2022/09/07 08:20:15;343961.00;1.15;593.48;0.00;0.00;0.62;;;;;34.30;1.00;;;;;;2272010;61;1601;-86
2022/09/07 08:22:52;358881.00;1.20;619.13;35082.00;0.12;61.38;;;;;34.10;1.00;;;;;;2272153;61;1555;-87
2022/09/07 08:25:28;327235.00;1.09;564.73;0.00;0.00;0.62;;;;;33.80;1.00;;;;;;2272133;61;1457;-86
2022/09/07 08:28:01;330646.00;1.10;570.60;88958.00;0.30;154.51;;;;;34.10;1.00;;;;;;2272739;61;1052;-86
2022/09/07 08:30:44;375618.00;1.25;647.89;64955.00;0.22;113.04;;;;;33.80;1.00;;;;;;2272767;61;1538;-86
2022/09/07 08:33:12;498368.00;1.66;859.01;63863.00;0.21;111.15;;;;;33.50;1.00;;;;;;2272832;61;1416;-87
2022/09/07 08:35:44;577883.00;1.93;996.05;92138.00;0.31;160.00;;;;;33.00;1.00;;;;;;2272871;61;1408;-87
2022/09/07 08:38:21;450327.00;1.50;776.34;100165.00;0.33;173.86;;;;;33.30;1.00;;;;;;2272776;61;1433;-85
2022/09/07 08:41:07;542375.00;1.81;934.82;88654.00;0.30;153.98;;;;;33.20;1.00;;;;;;2272754;61;1487;-87
2022/09/07 08:43:50;361653.00;1.21;623.89;0.00;0.00;0.62;;;;;33.20;1.00;;;;;;2272895;61;927;-86
2022/09/07 08:46:32;486131.00;1.62;837.95;92961.00;0.31;161.42;;;;;33.00;1.00;;;;;;2272743;61;1439;-86
2022/09/07 08:49:07;386232.00;1.29;666.14;0.00;0.00;0.62;;;;;32.90;1.00;;;;;;2272551;61;2004;-84
2022/09/07 08:52:02;1053438.00;3.51;1827.35;0.00;0.00;0.62;;;;;32.70;1.00;;;;;;2272716;61;1427;-86
2022/09/07 08:54:44;250302.00;0.83;432.47;0.00;0.00;0.62;;;;;32.50;1.00;;;;;;2272768;61;1451;-86
2022/09/07 08:57:29;254761.00;0.85;440.14;54018.00;0.18;94.13;;;;;31.70;1.00;;;;;;2272769;61;1581;-86
2022/09/07 09:00:22;350361.00;1.17;604.48;15595.00;0.05;27.64;;;;;31.40;1.00;;;;;;2272660;61;1676;-86
2022/09/07 09:03:14;347035.00;1.16;598.77;70857.00;0.24;123.24;;;;;31.20;1.00;;;;;;2272729;61;1535;-86
2022/09/07 09:06:01;294251.00;0.98;508.04;0.00;0.00;0.62;;;;;31.00;1.00;;;;;;2272674;61;860;-86
2022/09/07 09:08:49;403585.00;1.35;695.97;142282.00;0.47;246.50;;;;;31.10;1.00;;;;;;2272732;61;1914;-88
2022/09/07 09:11:33;689492.00;2.30;1189.02;103652.00;0.35;179.88;;;;;31.20;1.00;;;;;;2272725;61;1438;-88
2022/09/07 09:14:12;452146.00;1.51;779.47;62565.00;0.21;108.91;;;;;31.10;1.00;;;;;;2272624;61;1613;-86
2022/09/07 09:16:45;612836.00;2.04;1056.39;179015.00;0.60;309.79;;;;;30.90;1.00;;;;;;2272683;61;1405;-87
2022/09/07 09:20:00;662629.00;2.21;1142.49;159435.00;0.53;276.07;;;;;30.70;1.00;;;;;;2272602;61;1466;-85
2022/09/07 09:22:32;733202.00;2.44;1264.86;48177.00;0.16;84.03;;;;;31.00;1.00;;;;;;2272708;61;1433;-86
2022/09/07 09:25:13;831412.00;2.77;1435.96;47630.00;0.16;83.09;;;;;30.60;1.00;;;;;;2272637;61;1015;-86
2022/09/07 09:28:07;928272.00;3.09;1605.83;52226.00;0.17;91.04;;;;;30.60;1.00;;;;;;2272700;61;1022;-87
2022/09/07 09:30:36;286551.00;0.96;494.80;74.00;0.00;0.75;;;;;30.80;1.00;;;;;;2272524;61;2013;-88
2022/09/07 09:33:29;303590.00;1.01;524.09;6005.00;0.02;11.03;;;;;30.50;1.00;;;;;;2272676;61;1143;-87
2022/09/07 09:36:03;416752.00;1.39;718.61;16721.00;0.06;29.59;;;;;30.40;1.00;;;;;;2270324;61;1593;-85
2022/09/07 09:38:35;286501.00;0.96;494.71;0.00;0.00;0.62;;;;;30.50;1.00;;;;;;2272352;61;1642;-86
2022/09/07 09:41:13;395845.00;1.32;682.66;0.00;0.00;0.62;;;;;30.50;1.00;;;;;;2272613;61;1594;-86
2022/09/07 09:43:57;172912.00;0.58;299.28;0.00;0.00;0.62;;;;;30.70;1.00;;;;;;2272754;61;1004;-87
2022/09/07 09:46:28;364769.00;1.22;629.25;9825.00;0.03;17.65;;;;;30.90;1.00;;;;;;2272455;61;1530;-87
2022/09/07 09:49:09;248347.00;0.83;429.11;0.00;0.00;0.62;;;;;30.90;1.00;;;;;;2272597;61;1924;-86
2022/09/07 09:51:51;441734.00;1.47;761.57;66750.00;0.22;116.14;;;;;30.30;1.00;;;;;;2272587;61;1028;-87
2022/09/07 09:54:26;251276.00;0.84;434.15;3768.00;0.01;7.15;;;;;30.10;1.00;;;;;;2272431;61;1401;-85
2022/09/07 09:57:06;297830.00;0.99;514.19;0.00;0.00;0.62;;;;;30.10;1.00;;;;;;2272428;61;1495;-85
2022/09/07 09:59:45;316289.00;1.05;545.92;0.00;0.00;0.62;;;;;30.10;1.00;;;;;;2272442;61;1590;-87
2022/09/07 10:02:31;399453.00;1.33;688.86;47728.00;0.16;83.26;;;;;30.20;1.00;;;;;;2272468;61;1540;-88
2022/09/07 10:04:58;249467.00;0.83;431.03;0.00;0.00;0.62;;;;;30.30;1.00;;;;;;2272462;61;1096;-86
2022/09/07 10:07:31;444001.00;1.48;765.46;75100.00;0.25;130.57;;;;;30.10;1.00;;;;;;2272422;61;1598;-87
2022/09/07 10:10:19;177377.00;0.59;306.97;0.00;0.00;0.62;;;;;29.90;1.00;;;;;;2272466;61;1911;-87
2022/09/07 10:12:47;447189.00;1.49;770.95;0.00;0.00;0.62;;;;;30.20;1.00;;;;;;2272449;61;1513;-86
2022/09/07 10:15:28;384430.00;1.28;663.04;57191.00;0.19;99.62;;;;;30.40;1.00;;;;;;2272453;61;1526;-86